KGNT

Grants-Milan Municipal Airport

Grants, New Mexico, USA
METAR KGNT 151555Z AUTO 31011G15KT 10SM CLR M02/M09 A3036 RMK AO2 T10191093
Observed Flight Rules
Dec-15 @ 15:55 UTC (34 minutes ago) Visual Flight Rules
Wind Visibility Clouds
310° at 11 knots
 Gusting to 15 knots
10 miles
  • Clear skies
Temperatures Readings
Current -2°C / 28°F
Dewpoint -9°C / 16°F
Humidity 59%
Altimeter 30.36" Hg
Pressure 1028 hPa
Elevation 1987
METAR KGNT 151555Z AUTO 31011G15KT 10SM CLR M02/M09 A3036 RMK AO2 T10191093
Observed Flight Rules
Dec-15 @ 15:55 UTC
(34 minutes ago)
VFR
Wind Visibility
310° at 11 knots
 Gusting to 15 knots
10 miles
Clouds
  • Clear skies
Temperature Dewpoint
-2°C / 28°F -9°C / 16°F
Humidity Altimeter Pressure
59% 30.36" Hg 1028 hPa